sensor_id;sensor_type;location;lat;lon;timestamp;pressure;altitude;pressure_sealevel;temperature;humidity
9139;BME280;4604;48.616;9.548;2023-04-05T00:01:53;97401.53;;;-0.51;70.20
9139;BME280;4604;48.616;9.548;2023-04-05T00:04:21;97399.03;;;-0.54;70.22
9139;BME280;4604;48.616;9.548;2023-04-05T00:06:48;97393.84;;;-0.54;70.26
9139;BME280;4604;48.616;9.548;2023-04-05T00:09:18;97394.63;;;-0.52;69.97
9139;BME280;4604;48.616;9.548;2023-04-05T00:11:46;97393.75;;;-0.51;70.00
9139;BME280;4604;48.616;9.548;2023-04-05T00:14:12;97393.91;;;-0.56;70.08
9139;BME280;4604;48.616;9.548;2023-04-05T00:16:39;97383.78;;;-0.62;70.27
9139;BME280;4604;48.616;9.548;2023-04-05T00:19:06;97384.50;;;-0.58;70.13
9139;BME280;4604;48.616;9.548;2023-04-05T00:21:34;97394.88;;;-0.58;69.99
9139;BME280;4604;48.616;9.548;2023-04-05T00:24:03;97387.03;;;-0.57;70.06
9139;BME280;4604;48.616;9.548;2023-04-05T00:26:31;97381.13;;;-0.60;70.07
9139;BME280;4604;48.616;9.548;2023-04-05T00:28:58;97377.75;;;-0.62;69.99
9139;BME280;4604;48.616;9.548;2023-04-05T00:31:25;97372.53;;;-0.61;70.31
9139;BME280;4604;48.616;9.548;2023-04-05T00:33:51;97371.72;;;-0.63;70.78
9139;BME280;4604;48.616;9.548;2023-04-05T00:36:19;97359.78;;;-0.67;70.61
9139;BME280;4604;48.616;9.548;2023-04-05T00:38:47;97372.53;;;-0.61;70.77
9139;BME280;4604;48.616;9.548;2023-04-05T00:41:14;97368.34;;;-0.65;70.66
9139;BME280;4604;48.616;9.548;2023-04-05T00:43:43;97368.22;;;-0.62;70.79
9139;BME280;4604;48.616;9.548;2023-04-05T00:46:10;97363.81;;;-0.60;70.76
9139;BME280;4604;48.616;9.548;2023-04-05T00:48:37;97366.41;;;-0.60;70.61
9139;BME280;4604;48.616;9.548;2023-04-05T00:51:05;97361.28;;;-0.61;71.01
9139;BME280;4604;48.616;9.548;2023-04-05T00:53:33;97359.56;;;-0.61;70.79
9139;BME280;4604;48.616;9.548;2023-04-05T00:56:00;97364.06;;;-0.66;70.77
9139;BME280;4604;48.616;9.548;2023-04-05T00:58:28;97353.16;;;-0.74;70.96
9139;BME280;4604;48.616;9.548;2023-04-05T01:01:02;97356.69;;;-0.77;71.16
9139;BME280;4604;48.616;9.548;2023-04-05T01:03:31;97349.09;;;-0.81;71.38
9139;BME280;4604;48.616;9.548;2023-04-05T01:06:15;97348.09;;;-0.77;71.34
9139;BME280;4604;48.616;9.548;2023-04-05T01:08:54;97340.50;;;-0.82;71.63
9139;BME280;4604;48.616;9.548;2023-04-05T01:11:24;97339.75;;;-0.86;71.53
9139;BME280;4604;48.616;9.548;2023-04-05T01:13:57;97337.16;;;-0.86;71.80
9139;BME280;4604;48.616;9.548;2023-04-05T01:16:25;97342.41;;;-0.87;71.58
9139;BME280;4604;48.616;9.548;2023-04-05T01:18:51;97340.53;;;-0.83;71.69
9139;BME280;4604;48.616;9.548;2023-04-05T01:21:38;97337.16;;;-0.86;71.92
9139;BME280;4604;48.616;9.548;2023-04-05T01:24:17;97326.91;;;-0.89;71.60
9139;BME280;4604;48.616;9.548;2023-04-05T01:26:55;97321.75;;;-0.89;71.41
9139;BME280;4604;48.616;9.548;2023-04-05T01:29:46;97328.63;;;-0.88;71.23
9139;BME280;4604;48.616;9.548;2023-04-05T01:32:21;97317.53;;;-0.91;71.09
9139;BME280;4604;48.616;9.548;2023-04-05T01:34:53;97315.72;;;-0.89;71.04
9139;BME280;4604;48.616;9.548;2023-04-05T01:37:25;97317.53;;;-0.91;70.97
9139;BME280;4604;48.616;9.548;2023-04-05T01:39:52;97315.94;;;-0.95;71.03
9139;BME280;4604;48.616;9.548;2023-04-05T01:42:24;97317.78;;;-0.97;71.17
9139;BME280;4604;48.616;9.548;2023-04-05T01:44:53;97313.31;;;-0.94;71.19
9139;BME280;4604;48.616;9.548;2023-04-05T01:47:20;97313.44;;;-0.97;71.51
9139;BME280;4604;48.616;9.548;2023-04-05T01:49:49;97310.09;;;-1.00;71.74
9139;BME280;4604;48.616;9.548;2023-04-05T01:52:15;97309.59;;;-1.10;71.98
9139;BME280;4604;48.616;9.548;2023-04-05T01:54:42;97299.63;;;-1.19;72.20
9139;BME280;4604;48.616;9.548;2023-04-05T01:57:09;97300.66;;;-1.25;72.40
9139;BME280;4604;48.616;9.548;2023-04-05T01:59:35;97300.66;;;-1.25;72.66
9139;BME280;4604;48.616;9.548;2023-04-05T02:02:04;97299.78;;;-1.24;72.48
9139;BME280;4604;48.616;9.548;2023-04-05T02:04:30;97296.44;;;-1.27;72.66
9139;BME280;4604;48.616;9.548;2023-04-05T02:06:57;97291.56;;;-1.35;73.11
9139;BME280;4604;48.616;9.548;2023-04-05T02:09:24;97288.13;;;-1.36;73.20
9139;BME280;4604;48.616;9.548;2023-04-05T02:11:51;97290.72;;;-1.36;73.03
9139;BME280;4604;48.616;9.548;2023-04-05T02:14:18;97295.00;;;-1.35;72.92
9139;BME280;4604;48.616;9.548;2023-04-05T02:16:44;97291.56;;;-1.35;72.93
9139;BME280;4604;48.616;9.548;2023-04-05T02:19:13;97284.81;;;-1.39;73.09
9139;BME280;4604;48.616;9.548;2023-04-05T02:21:40;97291.72;;;-1.40;73.12
9139;BME280;4604;48.616;9.548;2023-04-05T02:24:06;97283.97;;;-1.40;73.34
9139;BME280;4604;48.616;9.548;2023-04-05T02:26:33;97284.13;;;-1.44;73.20
9139;BME280;4604;48.616;9.548;2023-04-05T02:29:00;97280.88;;;-1.49;73.60
9139;BME280;4604;48.616;9.548;2023-04-05T02:31:26;97284.28;;;-1.49;73.63
9139;BME280;4604;48.616;9.548;2023-04-05T02:33:53;97278.41;;;-1.53;73.06
9139;BME280;4604;48.616;9.548;2023-04-05T02:36:30;97284.53;;;-1.55;73.25
9139;BME280;4604;48.616;9.548;2023-04-05T02:38:56;97276.81;;;-1.57;72.96
9139;BME280;4604;48.616;9.548;2023-04-05T02:41:23;97269.22;;;-1.61;72.93
9139;BME280;4604;48.616;9.548;2023-04-05T02:43:50;97269.13;;;-1.58;73.18
9139;BME280;4604;48.616;9.548;2023-04-05T02:46:16;97268.38;;;-1.62;73.39
9139;BME280;4604;48.616;9.548;2023-04-05T02:48:44;97273.63;;;-1.63;73.44
9139;BME280;4604;48.616;9.548;2023-04-05T02:51:10;97262.53;;;-1.67;73.15
9139;BME280;4604;48.616;9.548;2023-04-05T02:53:39;97272.75;;;-1.64;72.92
9139;BME280;4604;48.616;9.548;2023-04-05T02:56:06;97269.34;;;-1.64;72.73
9139;BME280;4604;48.616;9.548;2023-04-05T02:58:33;97263.31;;;-1.65;72.88
9139;BME280;4604;48.616;9.548;2023-04-05T03:01:01;97266.59;;;-1.60;72.69
9139;BME280;4604;48.616;9.548;2023-04-05T03:03:31;97273.19;;;-1.51;71.93
9139;BME280;4604;48.616;9.548;2023-04-05T03:06:01;97272.66;;;-1.37;70.69
9139;BME280;4604;48.616;9.548;2023-04-05T03:08:34;97271.19;;;-1.21;69.50
9139;BME280;4604;48.616;9.548;2023-04-05T03:11:03;97266.41;;;-1.32;69.96
9139;BME280;4604;48.616;9.548;2023-04-05T03:13:30;97264.09;;;-1.39;70.39
9139;BME280;4604;48.616;9.548;2023-04-05T03:15:57;97268.72;;;-1.47;70.60
9139;BME280;4604;48.616;9.548;2023-04-05T03:18:23;97265.41;;;-1.51;70.71
9139;BME280;4604;48.616;9.548;2023-04-05T03:20:51;97261.38;;;-1.58;71.64
9139;BME280;4604;48.616;9.548;2023-04-05T03:23:20;97268.34;;;-1.60;71.56
9139;BME280;4604;48.616;9.548;2023-04-05T03:25:52;97271.94;;;-1.64;71.83
9139;BME280;4604;48.616;9.548;2023-04-05T03:28:21;97266.13;;;-1.71;71.64
9139;BME280;4604;48.616;9.548;2023-04-05T03:30:48;97261.09;;;-1.76;71.88
9139;BME280;4604;48.616;9.548;2023-04-05T03:33:15;97265.59;;;-1.81;72.02
9139;BME280;4604;48.616;9.548;2023-04-05T03:35:41;97260.56;;;-1.84;72.42
9139;BME280;4604;48.616;9.548;2023-04-05T03:38:08;97263.25;;;-1.87;72.32
9139;BME280;4604;48.616;9.548;2023-04-05T03:40:35;97270.47;;;-1.95;72.68
9139;BME280;4604;48.616;9.548;2023-04-05T03:43:01;97271.56;;;-2.02;73.07
9139;BME280;4604;48.616;9.548;2023-04-05T03:45:29;97264.84;;;-2.08;73.67
9139;BME280;4604;48.616;9.548;2023-04-05T03:47:57;97268.50;;;-2.13;74.09
9139;BME280;4604;48.616;9.548;2023-04-05T03:50:24;97253.25;;;-2.21;74.15
9139;BME280;4604;48.616;9.548;2023-04-05T03:52:51;97265.22;;;-2.19;74.77
9139;BME280;4604;48.616;9.548;2023-04-05T03:55:18;97264.44;;;-2.21;75.24
9139;BME280;4604;48.616;9.548;2023-04-05T03:57:46;97257.66;;;-2.25;75.63
9139;BME280;4604;48.616;9.548;2023-04-05T04:00:13;97256.97;;;-2.30;75.73
9139;BME280;4604;48.616;9.548;2023-04-05T04:02:44;97251.09;;;-2.33;75.41
9139;BME280;4604;48.616;9.548;2023-04-05T04:05:11;97261.19;;;-2.27;75.82
9139;BME280;4604;48.616;9.548;2023-04-05T04:07:39;97256.16;;;-2.30;75.93
9139;BME280;4604;48.616;9.548;2023-04-05T04:10:07;97259.63;;;-2.31;75.85
9139;BME280;4604;48.616;9.548;2023-04-05T04:12:34;97257.91;;;-2.31;75.73
9139;BME280;4604;48.616;9.548;2023-04-05T04:15:02;97260.41;;;-2.29;75.63
9139;BME280;4604;48.616;9.548;2023-04-05T04:17:29;97260.63;;;-2.35;75.53
9139;BME280;4604;48.616;9.548;2023-04-05T04:19:58;97262.22;;;-2.31;75.57
9139;BME280;4604;48.616;9.548;2023-04-05T04:22:26;97270.03;;;-2.33;75.94
9139;BME280;4604;48.616;9.548;2023-04-05T04:24:57;97264.00;;;-2.33;75.64
9139;BME280;4604;48.616;9.548;2023-04-05T04:27:27;97264.16;;;-2.38;75.79
9139;BME280;4604;48.616;9.548;2023-04-05T04:29:54;97274.69;;;-2.44;75.87
9139;BME280;4604;48.616;9.548;2023-04-05T04:32:28;97270.63;;;-2.51;76.19
9139;BME280;4604;48.616;9.548;2023-04-05T04:35:16;97271.41;;;-2.49;75.62
9139;BME280;4604;48.616;9.548;2023-04-05T04:37:45;97265.72;;;-2.59;76.29
9139;BME280;4604;48.616;9.548;2023-04-05T04:40:13;97271.72;;;-2.59;76.77
9139;BME280;4604;48.616;9.548;2023-04-05T04:42:41;97273.38;;;-2.56;76.66
9139;BME280;4604;48.616;9.548;2023-04-05T04:45:11;97275.31;;;-2.63;77.33
9139;BME280;4604;48.616;9.548;2023-04-05T04:47:40;97286.44;;;-2.61;77.07
9139;BME280;4604;48.616;9.548;2023-04-05T04:50:08;97276.88;;;-2.59;76.73
9139;BME280;4604;48.616;9.548;2023-04-05T04:52:37;97277.59;;;-2.53;76.97
9139;BME280;4604;48.616;9.548;2023-04-05T04:55:04;97275.91;;;-2.54;77.01
9139;BME280;4604;48.616;9.548;2023-04-05T04:57:31;97278.44;;;-2.53;76.89
9139;BME280;4604;48.616;9.548;2023-04-05T04:59:58;97281.03;;;-2.53;76.66
9139;BME280;4604;48.616;9.548;2023-04-05T05:02:25;97266.53;;;-2.59;76.87
9139;BME280;4604;48.616;9.548;2023-04-05T05:04:52;97265.22;;;-2.44;77.03
9139;BME280;4604;48.616;9.548;2023-04-05T05:07:19;97273.84;;;-2.45;76.72
9139;BME280;4604;48.616;9.548;2023-04-05T05:09:48;97274.69;;;-2.44;77.21
9139;BME280;4604;48.616;9.548;2023-04-05T05:12:17;97270.31;;;-2.42;77.30
9139;BME280;4604;48.616;9.548;2023-04-05T05:14:44;97269.38;;;-2.40;77.07
9139;BME280;4604;48.616;9.548;2023-04-05T05:17:10;97265.22;;;-2.44;77.25
9139;BME280;4604;48.616;9.548;2023-04-05T05:19:37;97265.16;;;-2.42;77.19
9139;BME280;4604;48.616;9.548;2023-04-05T05:22:04;97262.47;;;-2.39;77.14
9139;BME280;4604;48.616;9.548;2023-04-05T05:24:31;97270.94;;;-2.34;77.00
9139;BME280;4604;48.616;9.548;2023-04-05T05:26:59;97257.13;;;-2.34;77.47
9139;BME280;4604;48.616;9.548;2023-04-05T05:29:25;97263.00;;;-2.29;77.37
9139;BME280;4604;48.616;9.548;2023-04-05T05:31:52;97261.97;;;-2.24;77.07
9139;BME280;4604;48.616;9.548;2023-04-05T05:34:19;97265.22;;;-2.19;77.15
9139;BME280;4604;48.616;9.548;2023-04-05T05:36:46;97269.34;;;-2.13;77.28
9139;BME280;4604;48.616;9.548;2023-04-05T05:39:12;97264.13;;;-2.11;76.62
9139;BME280;4604;48.616;9.548;2023-04-05T05:41:40;97280.00;;;-1.97;76.34
9139;BME280;4604;48.616;9.548;2023-04-05T05:44:08;97275.41;;;-1.89;76.12
9139;BME280;4604;48.616;9.548;2023-04-05T05:46:34;97278.28;;;-1.73;75.46
9139;BME280;4604;48.616;9.548;2023-04-05T05:49:01;97276.63;;;-1.76;75.83
9139;BME280;4604;48.616;9.548;2023-04-05T05:51:28;97281.75;;;-1.74;76.06
9139;BME280;4604;48.616;9.548;2023-04-05T05:53:56;97288.41;;;-1.67;75.59
9139;BME280;4604;48.616;9.548;2023-04-05T05:56:23;97294.13;;;-1.59;75.50
9139;BME280;4604;48.616;9.548;2023-04-05T05:58:50;97290.25;;;-1.47;75.42
9139;BME280;4604;48.616;9.548;2023-04-05T06:01:18;97297.66;;;-1.36;74.97
9139;BME280;4604;48.616;9.548;2023-04-05T06:03:47;97304.97;;;-1.24;74.80
9139;BME280;4604;48.616;9.548;2023-04-05T06:06:14;97298.41;;;-1.11;74.65
9139;BME280;4604;48.616;9.548;2023-04-05T06:08:41;97299.63;;;-0.97;74.00
9139;BME280;4604;48.616;9.548;2023-04-05T06:11:15;97301.81;;;-0.87;73.44
9139;BME280;4604;48.616;9.548;2023-04-05T06:13:42;97292.75;;;-0.76;73.43
9139;BME280;4604;48.616;9.548;2023-04-05T06:16:09;97295.78;;;-0.65;73.36
9139;BME280;4604;48.616;9.548;2023-04-05T06:18:37;97291.97;;;-0.56;73.30
9139;BME280;4604;48.616;9.548;2023-04-05T06:21:04;97293.22;;;-0.45;73.31
9139;BME280;4604;48.616;9.548;2023-04-05T06:23:30;97298.03;;;-0.35;73.08
9139;BME280;4604;48.616;9.548;2023-04-05T06:25:58;97288.25;;;-0.29;73.20
9139;BME280;4604;48.616;9.548;2023-04-05T06:28:25;97288.72;;;-0.19;73.54
9139;BME280;4604;48.616;9.548;2023-04-05T06:30:52;97289.03;;;-0.06;72.75
9139;BME280;4604;48.616;9.548;2023-04-05T06:33:18;97269.75;;;-0.01;73.00
9139;BME280;4604;48.616;9.548;2023-04-05T06:35:46;97283.72;;;0.17;71.62
9139;BME280;4604;48.616;9.548;2023-04-05T06:38:16;97284.16;;;0.27;70.97
9139;BME280;4604;48.616;9.548;2023-04-05T06:40:43;97286.28;;;0.38;70.87
9139;BME280;4604;48.616;9.548;2023-04-05T06:43:10;97290.88;;;0.52;69.99
9139;BME280;4604;48.616;9.548;2023-04-05T06:45:38;97290.53;;;0.59;68.43
9139;BME280;4604;48.616;9.548;2023-04-05T06:48:05;97291.00;;;0.68;68.41
9139;BME280;4604;48.616;9.548;2023-04-05T06:50:32;97289.56;;;0.81;67.43
9139;BME280;4604;48.616;9.548;2023-04-05T06:53:01;97292.16;;;0.81;65.75
9139;BME280;4604;48.616;9.548;2023-04-05T06:55:27;97290.88;;;0.90;65.67
9139;BME280;4604;48.616;9.548;2023-04-05T06:57:54;97295.00;;;1.13;65.58
9139;BME280;4604;48.616;9.548;2023-04-05T07:00:21;97291.84;;;1.25;63.83
9139;BME280;4604;48.616;9.548;2023-04-05T07:02:51;97286.22;;;1.34;63.51
9139;BME280;4604;48.616;9.548;2023-04-05T07:05:17;97291.47;;;1.33;63.96
9139;BME280;4604;48.616;9.548;2023-04-05T07:07:44;97284.84;;;1.44;64.82
9139;BME280;4604;48.616;9.548;2023-04-05T07:10:14;97290.13;;;1.60;65.22
9139;BME280;4604;48.616;9.548;2023-04-05T07:12:41;97283.03;;;1.64;64.75
9139;BME280;4604;48.616;9.548;2023-04-05T07:15:08;97289.91;;;1.65;65.26
9139;BME280;4604;48.616;9.548;2023-04-05T07:17:35;97285.25;;;1.71;64.21
9139;BME280;4604;48.616;9.548;2023-04-05T07:20:03;97291.22;;;1.56;63.59
9139;BME280;4604;48.616;9.548;2023-04-05T07:22:32;97282.03;;;1.66;62.13
9139;BME280;4604;48.616;9.548;2023-04-05T07:25:00;97291.38;;;1.88;61.92
9139;BME280;4604;48.616;9.548;2023-04-05T07:27:28;97291.50;;;2.02;61.04
9139;BME280;4604;48.616;9.548;2023-04-05T07:29:55;97289.78;;;2.03;61.99
9139;BME280;4604;48.616;9.548;2023-04-05T07:32:22;97286.56;;;1.98;61.83
9139;BME280;4604;48.616;9.548;2023-04-05T07:34:49;97280.09;;;2.05;62.50
9139;BME280;4604;48.616;9.548;2023-04-05T07:37:15;97286.31;;;2.20;61.51
9139;BME280;4604;48.616;9.548;2023-04-05T07:39:42;97290.16;;;2.46;61.28
9139;BME280;4604;48.616;9.548;2023-04-05T07:42:09;97289.38;;;2.61;60.81
9139;BME280;4604;48.616;9.548;2023-04-05T07:44:37;97297.44;;;2.72;60.82
9139;BME280;4604;48.616;9.548;2023-04-05T07:47:03;97290.63;;;2.70;60.96
9139;BME280;4604;48.616;9.548;2023-04-05T07:49:30;97295.88;;;2.86;61.20
9139;BME280;4604;48.616;9.548;2023-04-05T07:51:57;97297.28;;;2.91;61.11
9139;BME280;4604;48.616;9.548;2023-04-05T07:54:24;97292.09;;;2.91;61.82
9139;BME280;4604;48.616;9.548;2023-04-05T07:56:51;97273.91;;;2.90;61.58
9139;BME280;4604;48.616;9.548;2023-04-05T07:59:19;97282.06;;;2.84;61.71
9139;BME280;4604;48.616;9.548;2023-04-05T08:01:47;97291.50;;;3.02;61.17
9139;BME280;4604;48.616;9.548;2023-04-05T08:04:14;97291.66;;;3.31;60.34
9139;BME280;4604;48.616;9.548;2023-04-05T08:06:40;97288.81;;;3.35;58.69
9139;BME280;4604;48.616;9.548;2023-04-05T08:09:07;97290.00;;;3.76;58.34
9139;BME280;4604;48.616;9.548;2023-04-05T08:11:34;97292.63;;;3.90;57.73
9139;BME280;4604;48.616;9.548;2023-04-05T08:14:01;97289.81;;;4.09;55.81
9139;BME280;4604;48.616;9.548;2023-04-05T08:16:27;97293.66;;;4.18;54.51
9139;BME280;4604;48.616;9.548;2023-04-05T08:18:56;97286.59;;;4.34;54.36
9139;BME280;4604;48.616;9.548;2023-04-05T08:21:23;97288.16;;;4.22;52.54
9139;BME280;4604;48.616;9.548;2023-04-05T08:23:50;97281.06;;;4.53;52.05
9139;BME280;4604;48.616;9.548;2023-04-05T08:26:17;97285.19;;;4.57;51.39
9139;BME280;4604;48.616;9.548;2023-04-05T08:28:44;97285.75;;;4.77;50.79
9139;BME280;4604;48.616;9.548;2023-04-05T08:31:10;97280.06;;;4.56;50.26
9139;BME280;4604;48.616;9.548;2023-04-05T08:33:37;97284.72;;;4.65;50.98
9139;BME280;4604;48.616;9.548;2023-04-05T08:36:06;97284.72;;;4.65;50.72
9139;BME280;4604;48.616;9.548;2023-04-05T08:38:33;97281.63;;;4.72;51.30
9139;BME280;4604;48.616;9.548;2023-04-05T08:41:06;97283.13;;;4.77;50.92
9139;BME280;4604;48.616;9.548;2023-04-05T08:43:40;97281.00;;;4.83;49.08
9139;BME280;4604;48.616;9.548;2023-04-05T08:46:13;97280.03;;;4.84;49.74
9139;BME280;4604;48.616;9.548;2023-04-05T08:48:41;97284.56;;;5.09;50.96
9139;BME280;4604;48.616;9.548;2023-04-05T08:51:10;97281.78;;;5.12;48.73
9139;BME280;4604;48.616;9.548;2023-04-05T08:53:37;97279.56;;;5.33;48.49
9139;BME280;4604;48.616;9.548;2023-04-05T08:56:04;97277.91;;;5.32;48.32
9139;BME280;4604;48.616;9.548;2023-04-05T08:58:34;97283.41;;;5.42;47.71
9139;BME280;4604;48.616;9.548;2023-04-05T09:01:03;97281.22;;;5.49;46.81
9139;BME280;4604;48.616;9.548;2023-04-05T09:03:34;97277.41;;;5.67;45.82
9139;BME280;4604;48.616;9.548;2023-04-05T09:06:05;97282.56;;;5.82;46.03
9139;BME280;4604;48.616;9.548;2023-04-05T09:08:34;97278.06;;;6.11;46.64
9139;BME280;4604;48.616;9.548;2023-04-05T09:11:01;97276.28;;;6.24;44.30
9139;BME280;4604;48.616;9.548;2023-04-05T09:13:28;97277.44;;;6.46;43.73
9139;BME280;4604;48.616;9.548;2023-04-05T09:15:55;97274.19;;;6.80;42.81
9139;BME280;4604;48.616;9.548;2023-04-05T09:18:22;97273.66;;;6.75;43.29
9139;BME280;4604;48.616;9.548;2023-04-05T09:20:49;97273.88;;;6.72;43.17
9139;BME280;4604;48.616;9.548;2023-04-05T09:23:15;97278.28;;;6.72;43.32
9139;BME280;4604;48.616;9.548;2023-04-05T09:25:43;97278.56;;;6.93;44.15
9139;BME280;4604;48.616;9.548;2023-04-05T09:28:11;97276.53;;;7.09;43.73
9139;BME280;4604;48.616;9.548;2023-04-05T09:30:45;97275.13;;;7.53;40.76
9139;BME280;4604;48.616;9.548;2023-04-05T09:33:17;97270.97;;;7.38;40.21
9139;BME280;4604;48.616;9.548;2023-04-05T09:35:48;97273.03;;;7.21;39.91
9139;BME280;4604;48.616;9.548;2023-04-05T09:38:15;97278.81;;;7.50;38.85
9139;BME280;4604;48.616;9.548;2023-04-05T09:40:45;97273.34;;;7.29;38.92
9139;BME280;4604;48.616;9.548;2023-04-05T09:43:12;97278.69;;;7.52;39.23
9139;BME280;4604;48.616;9.548;2023-04-05T09:45:41;97266.38;;;7.41;38.06
9139;BME280;4604;48.616;9.548;2023-04-05T09:48:10;97266.00;;;7.46;40.43
9139;BME280;4604;48.616;9.548;2023-04-05T09:50:38;97270.09;;;7.50;39.31
9139;BME280;4604;48.616;9.548;2023-04-05T09:53:06;97263.72;;;7.17;39.25
9139;BME280;4604;48.616;9.548;2023-04-05T09:55:33;97265.69;;;7.14;40.13
9139;BME280;4604;48.616;9.548;2023-04-05T09:58:02;97266.13;;;7.44;39.74
9139;BME280;4604;48.616;9.548;2023-04-05T10:00:28;97259.69;;;7.48;39.54
9139;BME280;4604;48.616;9.548;2023-04-05T10:02:55;97266.28;;;7.30;39.23
9139;BME280;4604;48.616;9.548;2023-04-05T10:05:23;97260.59;;;7.36;39.14
9139;BME280;4604;48.616;9.548;2023-04-05T10:07:51;97254.91;;;7.42;39.68
9139;BME280;4604;48.616;9.548;2023-04-05T10:10:18;97251.16;;;7.58;38.62
9139;BME280;4604;48.616;9.548;2023-04-05T10:12:48;97246.53;;;7.61;39.13
9139;BME280;4604;48.616;9.548;2023-04-05T10:15:16;97249.97;;;7.62;38.54
9139;BME280;4604;48.616;9.548;2023-04-05T10:17:47;97252.22;;;7.55;39.84
9139;BME280;4604;48.616;9.548;2023-04-05T10:20:16;97252.94;;;7.57;39.75
9139;BME280;4604;48.616;9.548;2023-04-05T10:22:55;97251.13;;;7.34;39.50
9139;BME280;4604;48.616;9.548;2023-04-05T10:25:26;97252.72;;;7.60;38.64
9139;BME280;4604;48.616;9.548;2023-04-05T10:28:03;97245.44;;;7.88;39.24
9139;BME280;4604;48.616;9.548;2023-04-05T10:30:34;97247.78;;;7.80;39.83
9139;BME280;4604;48.616;9.548;2023-04-05T10:33:10;97245.59;;;7.98;38.94
9139;BME280;4604;48.616;9.548;2023-04-05T10:35:46;97243.59;;;8.24;37.77
9139;BME280;4604;48.616;9.548;2023-04-05T10:38:20;97232.72;;;8.28;38.96
9139;BME280;4604;48.616;9.548;2023-04-05T10:40:48;97233.56;;;8.29;38.73
9139;BME280;4604;48.616;9.548;2023-04-05T10:43:22;97235.50;;;8.27;38.28
9139;BME280;4604;48.616;9.548;2023-04-05T10:45:51;97235.13;;;8.20;38.29
9139;BME280;4604;48.616;9.548;2023-04-05T10:48:33;97237.97;;;8.28;36.54
9139;BME280;4604;48.616;9.548;2023-04-05T10:51:02;97235.16;;;8.43;35.83
9139;BME280;4604;48.616;9.548;2023-04-05T10:53:30;97222.44;;;8.25;37.45
9139;BME280;4604;48.616;9.548;2023-04-05T10:55:58;97234.19;;;8.32;37.41
9139;BME280;4604;48.616;9.548;2023-04-05T10:58:27;97236.97;;;8.42;37.33
9139;BME280;4604;48.616;9.548;2023-04-05T11:00:56;97232.53;;;8.43;36.88
9139;BME280;4604;48.616;9.548;2023-04-05T11:03:46;97230.25;;;8.61;38.11
9139;BME280;4604;48.616;9.548;2023-04-05T11:06:21;97232.44;;;8.78;37.89
9139;BME280;4604;48.616;9.548;2023-04-05T11:08:50;97228.34;;;8.96;36.95
9139;BME280;4604;48.616;9.548;2023-04-05T11:11:18;97228.09;;;8.99;37.06
9139;BME280;4604;48.616;9.548;2023-04-05T11:13:47;97225.91;;;9.16;36.78
9139;BME280;4604;48.616;9.548;2023-04-05T11:16:16;97224.72;;;9.20;36.11
9139;BME280;4604;48.616;9.548;2023-04-05T11:18:44;97207.94;;;9.21;35.75
9139;BME280;4604;48.616;9.548;2023-04-05T11:21:19;97224.69;;;9.31;35.64
9139;BME280;4604;48.616;9.548;2023-04-05T11:24:04;97221.25;;;9.19;33.44
9139;BME280;4604;48.616;9.548;2023-04-05T11:26:33;97204.53;;;8.98;34.05
9139;BME280;4604;48.616;9.548;2023-04-05T11:28:59;97207.88;;;9.00;33.41
9139;BME280;4604;48.616;9.548;2023-04-05T11:31:28;97204.09;;;8.59;33.73
9139;BME280;4604;48.616;9.548;2023-04-05T11:33:58;97195.81;;;8.41;34.68
9139;BME280;4604;48.616;9.548;2023-04-05T11:36:37;97202.28;;;8.82;35.58
9139;BME280;4604;48.616;9.548;2023-04-05T11:39:24;97200.09;;;8.87;34.39
9139;BME280;4604;48.616;9.548;2023-04-05T11:41:58;97188.91;;;8.85;36.78
9139;BME280;4604;48.616;9.548;2023-04-05T11:44:28;97192.22;;;8.87;37.84
9139;BME280;4604;48.616;9.548;2023-04-05T11:46:57;97191.56;;;9.17;37.70
9139;BME280;4604;48.616;9.548;2023-04-05T11:49:24;97189.41;;;9.55;36.69
9139;BME280;4604;48.616;9.548;2023-04-05T11:51:52;97173.97;;;9.50;35.77
9139;BME280;4604;48.616;9.548;2023-04-05T11:54:29;97186.91;;;9.74;35.83
9139;BME280;4604;48.616;9.548;2023-04-05T11:56:56;97182.25;;;9.78;35.58
9139;BME280;4604;48.616;9.548;2023-04-05T11:59:30;97187.88;;;9.73;33.93
9139;BME280;4604;48.616;9.548;2023-04-05T12:02:04;97184.81;;;9.68;34.34
9139;BME280;4604;48.616;9.548;2023-04-05T12:04:32;97187.03;;;9.73;33.12
9139;BME280;4604;48.616;9.548;2023-04-05T12:07:13;97183.56;;;9.72;32.71
9139;BME280;4604;48.616;9.548;2023-04-05T12:09:57;97180.78;;;9.53;34.37
9139;BME280;4604;48.616;9.548;2023-04-05T12:12:23;97173.25;;;9.48;34.33
9139;BME280;4604;48.616;9.548;2023-04-05T12:14:50;97180.50;;;9.35;33.87
9139;BME280;4604;48.616;9.548;2023-04-05T12:17:18;97174.56;;;8.78;33.88
9139;BME280;4604;48.616;9.548;2023-04-05T12:19:45;97174.34;;;9.02;33.97
9139;BME280;4604;48.616;9.548;2023-04-05T12:22:12;97173.31;;;9.05;34.84
9139;BME280;4604;48.616;9.548;2023-04-05T12:24:38;97163.09;;;9.11;33.98
9139;BME280;4604;48.616;9.548;2023-04-05T12:27:05;97160.94;;;9.49;36.68
9139;BME280;4604;48.616;9.548;2023-04-05T12:29:32;97155.28;;;9.74;35.64
9139;BME280;4604;48.616;9.548;2023-04-05T12:32:00;97155.59;;;8.95;35.06
9139;BME280;4604;48.616;9.548;2023-04-05T12:34:30;97144.63;;;9.23;36.81
9139;BME280;4604;48.616;9.548;2023-04-05T12:36:59;97159.50;;;9.65;36.98
9139;BME280;4604;48.616;9.548;2023-04-05T12:39:28;97159.09;;;10.02;38.56
9139;BME280;4604;48.616;9.548;2023-04-05T12:41:56;97152.28;;;10.00;35.72
9139;BME280;4604;48.616;9.548;2023-04-05T12:44:27;97149.56;;;9.69;35.50
9139;BME280;4604;48.616;9.548;2023-04-05T12:46:59;97153.94;;;9.59;36.79
9139;BME280;4604;48.616;9.548;2023-04-05T12:49:26;97154.34;;;9.43;36.12
9139;BME280;4604;48.616;9.548;2023-04-05T12:51:59;97153.81;;;8.96;36.49
9139;BME280;4604;48.616;9.548;2023-04-05T12:54:27;97143.34;;;8.73;36.93
9139;BME280;4604;48.616;9.548;2023-04-05T12:56:53;97138.63;;;8.88;36.26
9139;BME280;4604;48.616;9.548;2023-04-05T12:59:23;97130.47;;;8.91;36.08
9139;BME280;4604;48.616;9.548;2023-04-05T13:01:50;97136.19;;;9.08;34.65
9139;BME280;4604;48.616;9.548;2023-04-05T13:04:17;97140.38;;;9.31;37.47
9139;BME280;4604;48.616;9.548;2023-04-05T13:06:45;97131.16;;;9.37;37.35
9139;BME280;4604;48.616;9.548;2023-04-05T13:09:13;97126.28;;;9.53;36.27
9139;BME280;4604;48.616;9.548;2023-04-05T13:11:40;97127.38;;;9.51;34.53
9139;BME280;4604;48.616;9.548;2023-04-05T13:14:06;97128.59;;;9.47;34.75
9139;BME280;4604;48.616;9.548;2023-04-05T13:16:34;97118.66;;;9.71;36.29
9139;BME280;4604;48.616;9.548;2023-04-05T13:19:00;97117.28;;;9.77;34.85
9139;BME280;4604;48.616;9.548;2023-04-05T13:21:27;97116.91;;;9.39;34.60
9139;BME280;4604;48.616;9.548;2023-04-05T13:23:53;97108.38;;;9.47;35.80
9139;BME280;4604;48.616;9.548;2023-04-05T13:26:21;97109.38;;;9.56;35.03
9139;BME280;4604;48.616;9.548;2023-04-05T13:28:48;97106.09;;;9.84;36.13
9139;BME280;4604;48.616;9.548;2023-04-05T13:31:15;97103.16;;;9.78;34.49
9139;BME280;4604;48.616;9.548;2023-04-05T13:33:42;97100.19;;;9.50;35.00
9139;BME280;4604;48.616;9.548;2023-04-05T13:36:09;97105.59;;;9.70;34.82